TimeCDT,TemperatureF,Dew PointF,Humidity,Sea Level PressureIn,VisibilityMPH,Wind Direction,Wind SpeedMPH,Gust SpeedMPH,PrecipitationIn,Events,Conditions,WindDirDegrees,DateUTC
12:13 AM,46.4,44.6,93,30.08,10.0,Calm,Calm,-,N/A,,Clear,0,2013-08-03 05:13:00
12:33 AM,44.6,42.8,93,30.09,10.0,Calm,Calm,-,N/A,,Clear,0,2013-08-03 05:33:00
12:53 AM,44.6,42.8,93,30.09,10.0,Calm,Calm,-,N/A,,Clear,0,2013-08-03 05:53:00
1:13 AM,44.6,42.8,93,30.09,10.0,Calm,Calm,-,N/A,,Clear,0,2013-08-03 06:13:00
1:33 AM,44.6,42.8,93,30.09,10.0,Calm,Calm,-,N/A,,Clear,0,2013-08-03 06:33:00
1:53 AM,44.6,42.8,93,30.10,10.0,Calm,Calm,-,N/A,,Clear,0,2013-08-03 06:53:00
2:13 AM,42.8,42.8,100,30.10,10.0,Calm,Calm,-,N/A,,Clear,0,2013-08-03 07:13:00
2:33 AM,44.6,42.8,93,30.10,10.0,Calm,Calm,-,N/A,,Clear,0,2013-08-03 07:33:00
2:53 AM,42.8,42.8,100,30.10,10.0,Calm,Calm,-,N/A,,Clear,0,2013-08-03 07:53:00
3:13 AM,42.8,42.8,100,30.10,10.0,Calm,Calm,-,N/A,,Clear,0,2013-08-03 08:13:00
3:33 AM,42.8,42.8,100,30.10,10.0,Calm,Calm,-,N/A,,Clear,0,2013-08-03 08:33:00
3:53 AM,42.8,41.0,93,30.10,10.0,Calm,Calm,-,N/A,,Clear,0,2013-08-03 08:53:00
4:13 AM,42.8,41.0,93,30.10,10.0,Calm,Calm,-,N/A,,Clear,0,2013-08-03 09:13:00
4:33 AM,42.8,39.2,87,30.11,10.0,Calm,Calm,-,N/A,,Clear,0,2013-08-03 09:33:00
4:53 AM,42.8,41.0,93,30.11,10.0,Calm,Calm,-,N/A,,Clear,0,2013-08-03 09:53:00
5:13 AM,42.8,41.0,93,30.11,10.0,Calm,Calm,-,N/A,,Clear,0,2013-08-03 10:13:00
5:33 AM,42.8,39.2,87,30.12,7.0,Calm,Calm,-,N/A,,Clear,0,2013-08-03 10:33:00
5:53 AM,41.0,39.2,93,30.12,10.0,Calm,Calm,-,N/A,,Clear,0,2013-08-03 10:53:00
6:13 AM,41.0,39.2,93,30.13,5.0,Calm,Calm,-,N/A,,Clear,0,2013-08-03 11:13:00
6:33 AM,41.0,39.2,93,30.13,10.0,Calm,Calm,-,N/A,,Clear,0,2013-08-03 11:33:00
6:53 AM,42.8,42.8,100,30.13,10.0,Calm,Calm,-,N/A,,Clear,0,2013-08-03 11:53:00
7:13 AM,44.6,42.8,93,30.14,10.0,Calm,Calm,-,N/A,,Clear,0,2013-08-03 12:13:00
7:33 AM,46.4,44.6,93,30.15,10.0,Calm,Calm,-,N/A,,Clear,0,2013-08-03 12:33:00
7:53 AM,51.8,48.2,88,30.15,10.0,Calm,Calm,-,N/A,,Clear,0,2013-08-03 12:53:00
8:13 AM,53.6,51.8,94,30.16,10.0,Calm,Calm,-,N/A,,Clear,0,2013-08-03 13:13:00
8:33 AM,55.4,51.8,88,30.16,10.0,NNW,3.5,-,N/A,,Clear,340,2013-08-03 13:33:00
8:53 AM,57.2,51.8,82,30.16,10.0,Calm,Calm,-,N/A,,Clear,0,2013-08-03 13:53:00
9:13 AM,57.2,51.8,82,30.17,10.0,Calm,Calm,-,N/A,,Clear,0,2013-08-03 14:13:00
9:33 AM,60.8,51.8,72,30.18,10.0,North,3.5,-,N/A,,Scattered Clouds,350,2013-08-03 14:33:00
9:53 AM,60.8,51.8,72,30.18,10.0,Calm,Calm,-,N/A,,Clear,0,2013-08-03 14:53:00
10:13 AM,60.8,51.8,72,30.18,10.0,Calm,Calm,-,N/A,,Clear,0,2013-08-03 15:13:00
10:33 AM,64.4,51.8,64,30.18,10.0,NNW,4.6,-,N/A,,Scattered Clouds,340,2013-08-03 15:33:00
10:53 AM,64.4,51.8,64,30.18,10.0,North,3.5,-,N/A,,Scattered Clouds,350,2013-08-03 15:53:00
11:13 AM,66.2,51.8,60,30.18,10.0,WNW,4.6,-,N/A,,Scattered Clouds,300,2013-08-03 16:13:00
11:33 AM,66.2,51.8,60,30.18,10.0,North,6.9,-,N/A,,Clear,350,2013-08-03 16:33:00
11:53 AM,66.2,50.0,56,30.18,10.0,NW,4.6,-,N/A,,Scattered Clouds,310,2013-08-03 16:53:00
12:13 PM,64.4,48.2,56,30.19,10.0,NNW,8.1,-,N/A,,Scattered Clouds,330,2013-08-03 17:13:00
12:33 PM,66.2,51.8,60,30.19,10.0,NNW,6.9,-,N/A,,Scattered Clouds,340,2013-08-03 17:33:00
12:53 PM,68.0,50.0,52,30.18,10.0,NNW,5.8,-,N/A,,Scattered Clouds,330,2013-08-03 17:53:00
1:13 PM,68.0,48.2,49,30.19,10.0,North,8.1,-,N/A,,Scattered Clouds,360,2013-08-03 18:13:00
1:33 PM,69.8,48.2,46,30.18,10.0,NW,4.6,-,N/A,,Clear,320,2013-08-03 18:33:00
1:53 PM,68.0,50.0,52,30.19,10.0,North,12.7,19.6,N/A,,Scattered Clouds,360,2013-08-03 18:53:00
2:13 PM,66.2,51.8,60,30.20,10.0,North,9.2,-,N/A,,Scattered Clouds,10,2013-08-03 19:13:00
2:33 PM,66.2,50.0,56,30.20,10.0,North,9.2,-,N/A,,Scattered Clouds,10,2013-08-03 19:33:00
2:53 PM,66.2,48.2,52,30.20,10.0,North,5.8,-,N/A,,Scattered Clouds,10,2013-08-03 19:53:00
3:13 PM,69.8,50.0,49,30.20,10.0,North,8.1,-,N/A,,Scattered Clouds,360,2013-08-03 20:13:00
3:33 PM,66.2,46.4,49,30.21,10.0,NNE,8.1,-,N/A,,Mostly Cloudy,30,2013-08-03 20:33:00
3:53 PM,66.2,48.2,52,30.21,10.0,North,3.5,-,N/A,,Scattered Clouds,350,2013-08-03 20:53:00
4:13 PM,69.8,48.2,46,30.20,10.0,North,8.1,-,N/A,,Scattered Clouds,360,2013-08-03 21:13:00
4:33 PM,66.2,46.4,49,30.21,10.0,North,5.8,-,N/A,,Scattered Clouds,350,2013-08-03 21:33:00
4:53 PM,68.0,46.4,46,30.21,10.0,NNE,6.9,-,N/A,,Scattered Clouds,20,2013-08-03 21:53:00
5:13 PM,66.2,46.4,49,30.21,10.0,North,5.8,-,N/A,,Mostly Cloudy,350,2013-08-03 22:13:00
5:33 PM,69.8,44.6,40,30.20,10.0,NNW,9.2,-,N/A,,Scattered Clouds,340,2013-08-03 22:33:00
5:53 PM,64.4,48.2,56,30.21,10.0,Calm,Calm,-,N/A,,Mostly Cloudy,0,2013-08-03 22:53:00
6:13 PM,66.2,46.4,49,30.21,10.0,NNW,8.1,-,N/A,,Mostly Cloudy,340,2013-08-03 23:13:00
6:33 PM,64.4,44.6,49,30.21,10.0,NNW,3.5,-,N/A,,Scattered Clouds,330,2013-08-03 23:33:00
6:53 PM,66.2,46.4,49,30.21,10.0,Calm,Calm,-,N/A,,Clear,0,2013-08-03 23:53:00
7:13 PM,66.2,46.4,49,30.21,10.0,North,6.9,-,N/A,,Clear,360,2013-08-04 00:13:00
7:33 PM,64.4,46.4,52,30.21,10.0,North,3.5,-,N/A,,Clear,360,2013-08-04 00:33:00
7:53 PM,62.6,48.2,59,30.21,10.0,North,3.5,-,N/A,,Clear,360,2013-08-04 00:53:00
8:13 PM,60.8,48.2,63,30.21,10.0,NNE,3.5,-,N/A,,Clear,20,2013-08-04 01:13:00
8:33 PM,55.4,48.2,77,30.21,10.0,Calm,Calm,-,N/A,,Clear,0,2013-08-04 01:33:00
8:53 PM,53.6,48.2,82,30.21,10.0,North,3.5,-,N/A,,Clear,10,2013-08-04 01:53:00
9:13 PM,53.6,48.2,82,30.22,10.0,Calm,Calm,-,N/A,,Clear,0,2013-08-04 02:13:00
9:33 PM,51.8,46.4,82,30.22,10.0,Calm,Calm,-,N/A,,Clear,0,2013-08-04 02:33:00
9:53 PM,48.2,46.4,93,30.23,10.0,Calm,Calm,-,N/A,,Clear,0,2013-08-04 02:53:00
10:13 PM,48.2,46.4,93,30.23,10.0,Calm,Calm,-,N/A,,Clear,0,2013-08-04 03:13:00
10:33 PM,46.4,44.6,93,30.24,10.0,Calm,Calm,-,N/A,,Clear,0,2013-08-04 03:33:00
10:53 PM,46.4,44.6,93,30.24,7.0,Calm,Calm,-,N/A,,Clear,0,2013-08-04 03:53:00
11:13 PM,44.6,42.8,93,30.25,10.0,Calm,Calm,-,N/A,,Clear,0,2013-08-04 04:13:00
11:33 PM,44.6,42.8,93,30.25,10.0,Calm,Calm,-,N/A,,Clear,0,2013-08-04 04:33:00
11:53 PM,44.6,42.8,93,30.25,10.0,Calm,Calm,-,N/A,,Clear,0,2013-08-04 04:53:00